»·PEaware :: N9915H KVNY-KLAS

N9915H :: KVNY-KLAS

FLIGHT INFORMATION

Flight Status: Arrived
Operator: Privately registered:
United States
More flights under this callsign
Pilot: Charlton B. (28558)
Aircraft: CIRRUS VISIONJET
(SF50)
More flights by this aircraft type
Origin: KVNY Van Nuys
United States
Destination: KLAS McCarran Intl
United States
More flights between these airports :: More routes between these airports
Route: +HARYS3 MISEN KEPEC6
File this flight plan on PilotEdge
Remarks:
Altitude:
(Current/Filed)
23,000ft
Speed:
(Current/Filed)
180kts
Departed: 09-Jul-20 04:16 PM
Arrived: 09-Jul-20 05:15 PM
Distance/Time
Traveled:
198nm/0:59
Distance/Time
To Go:
Arrived

Flight Plot

Page will automatically refresh every two minutes.

Flight plan parsing failed; only flown route is shown


Map Options




Map Legend


Flown Route
Filed Route
Departure Airport
Arrival Airport
Navaid (VOR, NDB)
Fix

Horizontal Profiles

Position Reports

Time Latitude Longitude Heading Altitude Ground
Speed
09-Jul-20 16:01 34.202981 -118.491573 0 806ft 0kts
09-Jul-20 16:02 34.202981 -118.491573 0 806ft 0kts
09-Jul-20 16:03 34.202981 -118.491573 0 806ft 0kts
09-Jul-20 16:04 34.202981 -118.491573 0 806ft 0kts
09-Jul-20 16:05 34.202981 -118.491573 0 806ft 0kts
09-Jul-20 16:06 34.202992 -118.491571 8 806ft 0kts
09-Jul-20 16:07 34.203032 -118.491553 22 806ft 0kts
09-Jul-20 16:08 34.203736 -118.491028 19 806ft 14kts
09-Jul-20 16:09 34.210234 -118.491575 355 806ft 28kts
09-Jul-20 16:10 34.217499 -118.492309 355 806ft 20kts
09-Jul-20 16:11 34.218788 -118.492234 116 806ft 0kts
09-Jul-20 16:12 34.218788 -118.492234 116 806ft 0kts
09-Jul-20 16:13 34.218788 -118.492234 116 806ft 0kts
09-Jul-20 16:14 34.218504 -118.491181 171 806ft 0kts
09-Jul-20 16:15 34.193254 -118.485983 144 1904ft 149kts
09-Jul-20 16:16 34.171346 -118.437331 94 3987ft 217kts
09-Jul-20 16:17 34.221475 -118.416619 351 6824ft 220kts
09-Jul-20 16:18 34.282262 -118.426717 351 8979ft 232kts
09-Jul-20 16:19 34.348511 -118.437821 351 9003ft 243kts
09-Jul-20 16:20 34.413499 -118.441859 33 9016ft 234kts
09-Jul-20 16:21 34.454025 -118.383004 58 10011ft 235kts
09-Jul-20 16:22 34.484913 -118.312775 42 11703ft 248kts
09-Jul-20 16:24 34.536017 -118.259654 40 13790ft 237kts
09-Jul-20 16:25 34.587128 -118.208363 40 15003ft 262kts
09-Jul-20 16:26 34.648517 -118.146617 42 15003ft 303kts
09-Jul-20 16:27 34.676846 -118.057168 78 16591ft 273kts
09-Jul-20 16:28 34.691188 -117.970443 85 18379ft 252kts
09-Jul-20 16:29 34.696655 -117.888752 88 20168ft 235kts
09-Jul-20 16:30 34.701255 -117.812793 88 21953ft 217kts
09-Jul-20 16:31 34.705164 -117.739937 90 22988ft 236kts
09-Jul-20 16:32 34.708675 -117.651437 89 23006ft 284kts
09-Jul-20 16:33 34.712553 -117.551188 89 23021ft 307kts
09-Jul-20 16:34 34.729267 -117.452129 74 23019ft 297kts
09-Jul-20 16:35 34.754479 -117.357039 73 23020ft 294kts
09-Jul-20 16:36 34.779518 -117.262592 74 23007ft 295kts
09-Jul-20 16:37 34.804954 -117.166301 74 22980ft 303kts
09-Jul-20 16:38 34.830835 -117.067980 74 22946ft 307kts
09-Jul-20 16:39 34.856939 -116.968431 73 22926ft 310kts
09-Jul-20 16:40 34.883137 -116.868156 73 22919ft 312kts
09-Jul-20 16:41 34.909410 -116.767230 73 22919ft 313kts
09-Jul-20 16:42 34.950474 -116.673558 55 22920ft 316kts
09-Jul-20 16:42 34.991963 -116.599962 56 22923ft 318kts
09-Jul-20 16:44 35.050715 -116.495668 56 22942ft 320kts
09-Jul-20 16:44 35.092887 -116.420610 56 22955ft 322kts
09-Jul-20 16:45 35.153367 -116.339994 46 22952ft 323kts
09-Jul-20 16:47 35.226573 -116.248212 46 22951ft 323kts
09-Jul-20 16:47 35.278550 -116.182908 46 22952ft 323kts
09-Jul-20 16:48 35.341581 -116.103548 46 22953ft 326kts
09-Jul-20 16:50 35.415277 -116.010522 46 22953ft 327kts
09-Jul-20 16:50 35.468039 -115.943764 46 22954ft 328kts
09-Jul-20 16:51 35.528728 -115.866875 45 22260ft 288kts
09-Jul-20 16:52 35.587390 -115.792209 46 18071ft 315kts
09-Jul-20 16:53 35.647326 -115.715837 46 13881ft 309kts
09-Jul-20 16:54 35.700199 -115.650760 48 12814ft 227kts
09-Jul-20 16:55 35.747736 -115.588394 38 12941ft 257kts
09-Jul-20 16:56 35.816981 -115.572188 0 12957ft 260kts
09-Jul-20 16:57 35.889703 -115.568109 0 12947ft 263kts
09-Jul-20 16:58 35.961840 -115.556874 34 12848ft 271kts
09-Jul-20 16:59 35.998782 -115.477065 70 12013ft 273kts
09-Jul-20 17:00 36.025317 -115.393412 69 11130ft 251kts
09-Jul-20 17:01 36.026516 -115.312447 98 10377ft 235kts
09-Jul-20 17:02 36.020674 -115.231999 98 9383ft 236kts
09-Jul-20 17:03 36.015222 -115.153657 98 8893ft 223kts
09-Jul-20 17:04 36.009959 -115.075453 98 8117ft 226kts
09-Jul-20 17:05 36.005583 -115.001511 99 8002ft 206kts
09-Jul-20 17:06 36.011572 -114.934471 42 7704ft 221kts
09-Jul-20 17:07 36.076123 -114.930020 0 5253ft 225kts
09-Jul-20 17:08 36.120752 -114.951191 281 5269ft 169kts
09-Jul-20 17:09 36.133378 -115.006213 280 5297ft 166kts
09-Jul-20 17:10 36.145704 -115.061175 279 5307ft 166kts
09-Jul-20 17:11 36.150943 -115.115905 237 4749ft 185kts
09-Jul-20 17:12 36.117231 -115.145580 203 2698ft 116kts
09-Jul-20 17:13 36.094242 -115.159488 203 2102ft 51kts
09-Jul-20 17:14 36.089335 -115.163731 273 2130ft 0kts
09-Jul-20 17:15 36.086259 -115.166538 205 2147ft 18kts

Navigation Log

Ident Type
Flight plan parsing failed, navigation log unavailable